sensor_id;sensor_type;location;lat;lon;timestamp;P1;durP1;ratioP1;P2;durP2;ratioP2
66189;SDS011;52992;52.084;5.412;2023-06-05T00:02:16;1999.90;;;999.90;;
66189;SDS011;52992;52.084;5.412;2023-06-05T00:04:43;1999.90;;;999.90;;
66189;SDS011;52992;52.084;5.412;2023-06-05T00:07:10;1999.90;;;999.90;;
66189;SDS011;52992;52.084;5.412;2023-06-05T00:09:37;1999.90;;;999.90;;
66189;SDS011;52992;52.084;5.412;2023-06-05T00:12:04;1999.90;;;999.90;;
66189;SDS011;52992;52.084;5.412;2023-06-05T00:14:31;1999.90;;;999.90;;
66189;SDS011;52992;52.084;5.412;2023-06-05T00:16:58;1999.90;;;999.90;;
66189;SDS011;52992;52.084;5.412;2023-06-05T00:19:25;1999.90;;;999.90;;
66189;SDS011;52992;52.084;5.412;2023-06-05T00:21:52;1999.90;;;999.90;;
66189;SDS011;52992;52.084;5.412;2023-06-05T00:24:19;1999.90;;;999.90;;
66189;SDS011;52992;52.084;5.412;2023-06-05T00:26:46;1999.90;;;999.90;;
66189;SDS011;52992;52.084;5.412;2023-06-05T00:29:13;1999.90;;;999.90;;
66189;SDS011;52992;52.084;5.412;2023-06-05T00:31:42;1999.90;;;999.90;;
66189;SDS011;52992;52.084;5.412;2023-06-05T00:34:10;1999.90;;;999.90;;
66189;SDS011;52992;52.084;5.412;2023-06-05T00:36:37;1999.90;;;999.90;;
66189;SDS011;52992;52.084;5.412;2023-06-05T00:39:03;1999.90;;;999.90;;
66189;SDS011;52992;52.084;5.412;2023-06-05T00:41:30;1999.90;;;999.90;;
66189;SDS011;52992;52.084;5.412;2023-06-05T00:43:57;1999.90;;;999.90;;
66189;SDS011;52992;52.084;5.412;2023-06-05T00:46:24;1999.90;;;999.90;;
66189;SDS011;52992;52.084;5.412;2023-06-05T00:48:51;1999.90;;;999.90;;
66189;SDS011;52992;52.084;5.412;2023-06-05T00:51:19;1999.90;;;999.90;;
66189;SDS011;52992;52.084;5.412;2023-06-05T00:53:47;1999.90;;;999.90;;
66189;SDS011;52992;52.084;5.412;2023-06-05T00:56:14;1999.90;;;999.90;;
66189;SDS011;52992;52.084;5.412;2023-06-05T00:58:43;1999.90;;;999.90;;
66189;SDS011;52992;52.084;5.412;2023-06-05T01:01:10;1999.90;;;999.90;;
66189;SDS011;52992;52.084;5.412;2023-06-05T01:03:38;1999.90;;;999.90;;
66189;SDS011;52992;52.084;5.412;2023-06-05T01:06:06;1999.90;;;999.90;;
66189;SDS011;52992;52.084;5.412;2023-06-05T01:08:34;1999.90;;;999.90;;
66189;SDS011;52992;52.084;5.412;2023-06-05T01:11:09;1999.90;;;999.90;;
66189;SDS011;52992;52.084;5.412;2023-06-05T01:13:50;1999.90;;;999.90;;
66189;SDS011;52992;52.084;5.412;2023-06-05T01:16:27;1999.90;;;999.90;;
66189;SDS011;52992;52.084;5.412;2023-06-05T01:19:00;1999.90;;;999.90;;
66189;SDS011;52992;52.084;5.412;2023-06-05T01:21:31;1999.90;;;999.90;;
66189;SDS011;52992;52.084;5.412;2023-06-05T01:23:58;1999.90;;;999.90;;
66189;SDS011;52992;52.084;5.412;2023-06-05T01:26:32;1999.90;;;999.90;;
66189;SDS011;52992;52.084;5.412;2023-06-05T01:29:07;1999.90;;;999.90;;
66189;SDS011;52992;52.084;5.412;2023-06-05T01:31:41;1999.90;;;999.90;;
66189;SDS011;52992;52.084;5.412;2023-06-05T01:34:10;1999.90;;;999.90;;
66189;SDS011;52992;52.084;5.412;2023-06-05T01:36:41;1999.90;;;999.90;;
66189;SDS011;52992;52.084;5.412;2023-06-05T01:39:08;1999.90;;;999.90;;
66189;SDS011;52992;52.084;5.412;2023-06-05T01:41:37;1999.90;;;999.90;;
66189;SDS011;52992;52.084;5.412;2023-06-05T01:44:06;1999.90;;;999.90;;
66189;SDS011;52992;52.084;5.412;2023-06-05T01:46:34;1999.90;;;999.90;;
66189;SDS011;52992;52.084;5.412;2023-06-05T01:49:02;1999.90;;;999.90;;
66189;SDS011;52992;52.084;5.412;2023-06-05T01:51:29;1999.90;;;999.90;;
66189;SDS011;52992;52.084;5.412;2023-06-05T01:53:56;1999.90;;;999.90;;
66189;SDS011;52992;52.084;5.412;2023-06-05T01:56:23;1999.90;;;999.90;;
66189;SDS011;52992;52.084;5.412;2023-06-05T01:58:51;1999.90;;;999.90;;
66189;SDS011;52992;52.084;5.412;2023-06-05T02:01:19;1999.90;;;999.90;;
66189;SDS011;52992;52.084;5.412;2023-06-05T02:03:49;1999.90;;;999.90;;
66189;SDS011;52992;52.084;5.412;2023-06-05T02:06:16;1999.90;;;999.90;;
66189;SDS011;52992;52.084;5.412;2023-06-05T02:08:43;1999.90;;;999.90;;
66189;SDS011;52992;52.084;5.412;2023-06-05T02:11:10;1999.90;;;999.90;;
66189;SDS011;52992;52.084;5.412;2023-06-05T02:13:40;1999.90;;;999.90;;
66189;SDS011;52992;52.084;5.412;2023-06-05T02:16:09;1999.90;;;999.90;;
66189;SDS011;52992;52.084;5.412;2023-06-05T02:18:37;1999.90;;;999.90;;
66189;SDS011;52992;52.084;5.412;2023-06-05T02:21:04;1999.90;;;999.90;;
66189;SDS011;52992;52.084;5.412;2023-06-05T02:23:31;1999.90;;;999.90;;
66189;SDS011;52992;52.084;5.412;2023-06-05T02:25:58;1999.90;;;999.90;;
66189;SDS011;52992;52.084;5.412;2023-06-05T02:28:25;1999.90;;;999.90;;
66189;SDS011;52992;52.084;5.412;2023-06-05T02:30:54;1999.90;;;999.90;;
66189;SDS011;52992;52.084;5.412;2023-06-05T02:33:21;1999.90;;;999.90;;
66189;SDS011;52992;52.084;5.412;2023-06-05T02:35:50;1999.90;;;999.90;;
66189;SDS011;52992;52.084;5.412;2023-06-05T02:38:18;1999.90;;;999.90;;
66189;SDS011;52992;52.084;5.412;2023-06-05T02:40:45;1999.90;;;999.90;;
66189;SDS011;52992;52.084;5.412;2023-06-05T02:43:12;1999.90;;;999.90;;
66189;SDS011;52992;52.084;5.412;2023-06-05T02:45:41;1999.90;;;999.90;;
66189;SDS011;52992;52.084;5.412;2023-06-05T02:48:08;1999.90;;;999.90;;
66189;SDS011;52992;52.084;5.412;2023-06-05T02:50:35;1999.90;;;999.90;;
66189;SDS011;52992;52.084;5.412;2023-06-05T02:53:04;1999.90;;;999.90;;
66189;SDS011;52992;52.084;5.412;2023-06-05T02:55:33;1999.90;;;999.90;;
66189;SDS011;52992;52.084;5.412;2023-06-05T02:58:06;1999.90;;;999.90;;
66189;SDS011;52992;52.084;5.412;2023-06-05T03:00:39;1999.90;;;999.90;;
66189;SDS011;52992;52.084;5.412;2023-06-05T03:03:08;1999.90;;;999.90;;
66189;SDS011;52992;52.084;5.412;2023-06-05T03:05:39;1999.90;;;999.90;;
66189;SDS011;52992;52.084;5.412;2023-06-05T03:08:11;1999.90;;;999.90;;
66189;SDS011;52992;52.084;5.412;2023-06-05T03:10:38;1999.90;;;999.90;;
66189;SDS011;52992;52.084;5.412;2023-06-05T03:13:06;1999.90;;;999.90;;
66189;SDS011;52992;52.084;5.412;2023-06-05T03:15:36;1999.90;;;999.90;;
66189;SDS011;52992;52.084;5.412;2023-06-05T03:18:05;1999.90;;;999.90;;
66189;SDS011;52992;52.084;5.412;2023-06-05T03:20:33;1999.90;;;999.90;;
66189;SDS011;52992;52.084;5.412;2023-06-05T03:23:00;1999.90;;;999.90;;
66189;SDS011;52992;52.084;5.412;2023-06-05T03:25:27;1999.90;;;999.90;;
66189;SDS011;52992;52.084;5.412;2023-06-05T03:27:56;1999.90;;;999.90;;
66189;SDS011;52992;52.084;5.412;2023-06-05T03:30:26;1999.90;;;999.90;;
66189;SDS011;52992;52.084;5.412;2023-06-05T03:32:55;1999.90;;;999.90;;
66189;SDS011;52992;52.084;5.412;2023-06-05T03:35:22;1999.90;;;999.90;;
66189;SDS011;52992;52.084;5.412;2023-06-05T03:37:50;1999.90;;;999.90;;
66189;SDS011;52992;52.084;5.412;2023-06-05T03:40:17;1999.90;;;999.90;;
66189;SDS011;52992;52.084;5.412;2023-06-05T03:42:44;1999.90;;;999.90;;
66189;SDS011;52992;52.084;5.412;2023-06-05T03:45:11;1999.90;;;999.90;;
66189;SDS011;52992;52.084;5.412;2023-06-05T03:47:40;1999.90;;;999.90;;
66189;SDS011;52992;52.084;5.412;2023-06-05T03:50:09;1999.90;;;999.90;;
66189;SDS011;52992;52.084;5.412;2023-06-05T03:52:41;1999.90;;;999.90;;
66189;SDS011;52992;52.084;5.412;2023-06-05T03:55:08;1999.90;;;999.90;;
66189;SDS011;52992;52.084;5.412;2023-06-05T03:57:37;1999.90;;;999.90;;
66189;SDS011;52992;52.084;5.412;2023-06-05T04:00:06;1999.90;;;999.90;;
66189;SDS011;52992;52.084;5.412;2023-06-05T04:02:45;1999.90;;;999.90;;
66189;SDS011;52992;52.084;5.412;2023-06-05T04:05:14;1999.90;;;999.90;;
66189;SDS011;52992;52.084;5.412;2023-06-05T04:07:41;1999.90;;;999.90;;
66189;SDS011;52992;52.084;5.412;2023-06-05T04:10:09;1999.90;;;999.90;;
66189;SDS011;52992;52.084;5.412;2023-06-05T04:12:36;1999.90;;;999.90;;
66189;SDS011;52992;52.084;5.412;2023-06-05T04:15:04;1999.90;;;999.90;;
66189;SDS011;52992;52.084;5.412;2023-06-05T04:17:31;1999.90;;;999.90;;
66189;SDS011;52992;52.084;5.412;2023-06-05T04:19:58;1999.90;;;999.90;;
66189;SDS011;52992;52.084;5.412;2023-06-05T04:22:26;1999.90;;;999.90;;
66189;SDS011;52992;52.084;5.412;2023-06-05T04:24:54;1999.90;;;999.90;;
66189;SDS011;52992;52.084;5.412;2023-06-05T04:27:21;1999.90;;;999.90;;
66189;SDS011;52992;52.084;5.412;2023-06-05T04:29:48;1999.90;;;999.90;;
66189;SDS011;52992;52.084;5.412;2023-06-05T04:32:17;1999.90;;;999.90;;
66189;SDS011;52992;52.084;5.412;2023-06-05T04:34:44;1999.90;;;999.90;;
66189;SDS011;52992;52.084;5.412;2023-06-05T04:37:11;1999.90;;;999.90;;
66189;SDS011;52992;52.084;5.412;2023-06-05T04:39:38;1999.90;;;999.90;;
66189;SDS011;52992;52.084;5.412;2023-06-05T04:42:05;1999.90;;;999.90;;
66189;SDS011;52992;52.084;5.412;2023-06-05T04:44:39;1999.90;;;999.90;;
66189;SDS011;52992;52.084;5.412;2023-06-05T04:47:06;1999.90;;;999.90;;
66189;SDS011;52992;52.084;5.412;2023-06-05T04:49:34;1999.90;;;999.90;;
66189;SDS011;52992;52.084;5.412;2023-06-05T04:52:01;1999.90;;;999.90;;
66189;SDS011;52992;52.084;5.412;2023-06-05T04:54:29;1999.90;;;999.90;;
66189;SDS011;52992;52.084;5.412;2023-06-05T04:56:57;1999.90;;;999.90;;
66189;SDS011;52992;52.084;5.412;2023-06-05T04:59:25;1999.90;;;999.90;;
66189;SDS011;52992;52.084;5.412;2023-06-05T05:01:52;1999.90;;;999.90;;
66189;SDS011;52992;52.084;5.412;2023-06-05T05:04:21;1999.90;;;999.90;;
66189;SDS011;52992;52.084;5.412;2023-06-05T05:06:50;1999.90;;;999.90;;
66189;SDS011;52992;52.084;5.412;2023-06-05T05:09:18;1999.90;;;999.90;;
66189;SDS011;52992;52.084;5.412;2023-06-05T05:11:45;1999.90;;;999.90;;
66189;SDS011;52992;52.084;5.412;2023-06-05T05:14:12;1999.90;;;999.90;;
66189;SDS011;52992;52.084;5.412;2023-06-05T05:16:39;1999.90;;;999.90;;
66189;SDS011;52992;52.084;5.412;2023-06-05T05:19:07;1999.90;;;999.90;;
66189;SDS011;52992;52.084;5.412;2023-06-05T05:21:35;1999.90;;;999.90;;
66189;SDS011;52992;52.084;5.412;2023-06-05T05:24:02;1999.90;;;999.90;;
66189;SDS011;52992;52.084;5.412;2023-06-05T05:26:30;1999.90;;;999.90;;
66189;SDS011;52992;52.084;5.412;2023-06-05T05:28:57;1999.90;;;999.90;;
66189;SDS011;52992;52.084;5.412;2023-06-05T05:31:24;1999.90;;;999.90;;
66189;SDS011;52992;52.084;5.412;2023-06-05T05:33:51;1999.90;;;999.90;;
66189;SDS011;52992;52.084;5.412;2023-06-05T05:36:18;1999.90;;;999.90;;
66189;SDS011;52992;52.084;5.412;2023-06-05T05:38:45;1999.90;;;999.90;;
66189;SDS011;52992;52.084;5.412;2023-06-05T05:41:12;1999.90;;;999.90;;
66189;SDS011;52992;52.084;5.412;2023-06-05T05:43:39;1999.90;;;999.90;;
66189;SDS011;52992;52.084;5.412;2023-06-05T05:46:06;1999.90;;;999.90;;
66189;SDS011;52992;52.084;5.412;2023-06-05T05:48:36;1999.90;;;999.90;;
66189;SDS011;52992;52.084;5.412;2023-06-05T05:51:04;1999.90;;;999.90;;
66189;SDS011;52992;52.084;5.412;2023-06-05T05:53:32;1999.90;;;999.90;;
66189;SDS011;52992;52.084;5.412;2023-06-05T05:55:59;1999.90;;;999.90;;
66189;SDS011;52992;52.084;5.412;2023-06-05T05:58:26;1999.90;;;999.90;;
66189;SDS011;52992;52.084;5.412;2023-06-05T06:00:53;1999.90;;;999.90;;
66189;SDS011;52992;52.084;5.412;2023-06-05T06:03:21;1999.90;;;999.90;;
66189;SDS011;52992;52.084;5.412;2023-06-05T06:05:49;1999.90;;;999.90;;
66189;SDS011;52992;52.084;5.412;2023-06-05T06:08:16;1999.90;;;999.90;;
66189;SDS011;52992;52.084;5.412;2023-06-05T06:10:43;1999.90;;;999.90;;
66189;SDS011;52992;52.084;5.412;2023-06-05T06:13:12;1999.90;;;999.90;;
66189;SDS011;52992;52.084;5.412;2023-06-05T06:15:39;1999.90;;;999.90;;
66189;SDS011;52992;52.084;5.412;2023-06-05T06:18:06;1999.90;;;999.90;;
66189;SDS011;52992;52.084;5.412;2023-06-05T06:20:33;1999.90;;;999.90;;
66189;SDS011;52992;52.084;5.412;2023-06-05T06:23:00;1999.90;;;999.90;;
66189;SDS011;52992;52.084;5.412;2023-06-05T06:25:29;1999.90;;;999.90;;
66189;SDS011;52992;52.084;5.412;2023-06-05T06:27:58;1999.90;;;999.90;;
66189;SDS011;52992;52.084;5.412;2023-06-05T06:30:28;1999.90;;;999.90;;
66189;SDS011;52992;52.084;5.412;2023-06-05T06:32:55;1999.90;;;999.90;;
66189;SDS011;52992;52.084;5.412;2023-06-05T06:35:25;1999.90;;;999.90;;
66189;SDS011;52992;52.084;5.412;2023-06-05T06:37:55;1999.90;;;999.90;;
66189;SDS011;52992;52.084;5.412;2023-06-05T06:40:22;1999.90;;;999.90;;
66189;SDS011;52992;52.084;5.412;2023-06-05T06:42:50;1999.90;;;999.90;;
66189;SDS011;52992;52.084;5.412;2023-06-05T06:45:38;1999.90;;;999.90;;
66189;SDS011;52992;52.084;5.412;2023-06-05T06:48:05;1999.90;;;999.90;;
66189;SDS011;52992;52.084;5.412;2023-06-05T06:50:34;1999.90;;;999.90;;
66189;SDS011;52992;52.084;5.412;2023-06-05T06:53:01;1999.90;;;999.90;;
66189;SDS011;52992;52.084;5.412;2023-06-05T06:55:28;1999.90;;;999.90;;
66189;SDS011;52992;52.084;5.412;2023-06-05T06:57:55;1999.90;;;999.90;;
66189;SDS011;52992;52.084;5.412;2023-06-05T07:00:22;1999.90;;;999.90;;
66189;SDS011;52992;52.084;5.412;2023-06-05T07:02:49;1999.90;;;999.90;;
66189;SDS011;52992;52.084;5.412;2023-06-05T07:05:17;1999.90;;;999.90;;
66189;SDS011;52992;52.084;5.412;2023-06-05T07:07:46;1999.90;;;999.90;;
66189;SDS011;52992;52.084;5.412;2023-06-05T07:10:13;1999.90;;;999.90;;
66189;SDS011;52992;52.084;5.412;2023-06-05T07:12:42;1999.90;;;999.90;;
66189;SDS011;52992;52.084;5.412;2023-06-05T07:15:09;1999.90;;;999.90;;
66189;SDS011;52992;52.084;5.412;2023-06-05T07:17:36;1999.90;;;999.90;;
66189;SDS011;52992;52.084;5.412;2023-06-05T07:20:03;1999.90;;;999.90;;
66189;SDS011;52992;52.084;5.412;2023-06-05T07:22:32;1999.90;;;999.90;;
66189;SDS011;52992;52.084;5.412;2023-06-05T07:24:59;1999.90;;;999.90;;
66189;SDS011;52992;52.084;5.412;2023-06-05T07:27:26;1999.90;;;999.90;;
66189;SDS011;52992;52.084;5.412;2023-06-05T07:29:55;1999.90;;;999.90;;
66189;SDS011;52992;52.084;5.412;2023-06-05T07:32:22;1999.90;;;999.90;;
66189;SDS011;52992;52.084;5.412;2023-06-05T07:34:50;1999.90;;;999.90;;
66189;SDS011;52992;52.084;5.412;2023-06-05T07:37:17;1999.90;;;999.90;;
66189;SDS011;52992;52.084;5.412;2023-06-05T07:39:44;1999.90;;;999.90;;
66189;SDS011;52992;52.084;5.412;2023-06-05T07:42:13;1999.90;;;999.90;;
66189;SDS011;52992;52.084;5.412;2023-06-05T07:44:41;1999.90;;;999.90;;
66189;SDS011;52992;52.084;5.412;2023-06-05T07:47:09;1999.90;;;999.90;;
66189;SDS011;52992;52.084;5.412;2023-06-05T07:49:35;1999.90;;;999.90;;
66189;SDS011;52992;52.084;5.412;2023-06-05T07:52:02;1999.90;;;999.90;;
66189;SDS011;52992;52.084;5.412;2023-06-05T07:54:30;1999.90;;;999.90;;
66189;SDS011;52992;52.084;5.412;2023-06-05T07:56:56;1999.90;;;999.90;;
66189;SDS011;52992;52.084;5.412;2023-06-05T07:59:25;1999.90;;;999.90;;
66189;SDS011;52992;52.084;5.412;2023-06-05T08:01:54;1999.90;;;999.90;;
66189;SDS011;52992;52.084;5.412;2023-06-05T08:04:26;1999.90;;;999.90;;
66189;SDS011;52992;52.084;5.412;2023-06-05T08:06:54;1999.90;;;999.90;;
66189;SDS011;52992;52.084;5.412;2023-06-05T08:09:21;1999.90;;;999.90;;
66189;SDS011;52992;52.084;5.412;2023-06-05T08:11:48;1999.90;;;999.90;;
66189;SDS011;52992;52.084;5.412;2023-06-05T08:14:15;1999.90;;;999.90;;
66189;SDS011;52992;52.084;5.412;2023-06-05T08:16:42;1999.90;;;999.90;;
66189;SDS011;52992;52.084;5.412;2023-06-05T08:19:10;1999.90;;;999.90;;
66189;SDS011;52992;52.084;5.412;2023-06-05T08:21:37;1999.90;;;999.90;;
66189;SDS011;52992;52.084;5.412;2023-06-05T08:24:04;1999.90;;;999.90;;
66189;SDS011;52992;52.084;5.412;2023-06-05T08:26:31;1999.90;;;999.90;;
66189;SDS011;52992;52.084;5.412;2023-06-05T08:28:59;1999.90;;;999.90;;
66189;SDS011;52992;52.084;5.412;2023-06-05T08:31:26;1999.90;;;999.90;;
66189;SDS011;52992;52.084;5.412;2023-06-05T08:33:53;1999.90;;;999.90;;
66189;SDS011;52992;52.084;5.412;2023-06-05T08:36:21;1999.90;;;999.90;;
66189;SDS011;52992;52.084;5.412;2023-06-05T08:38:50;1999.90;;;999.90;;
66189;SDS011;52992;52.084;5.412;2023-06-05T08:41:17;1999.90;;;999.90;;
66189;SDS011;52992;52.084;5.412;2023-06-05T08:43:45;1999.90;;;999.90;;
66189;SDS011;52992;52.084;5.412;2023-06-05T08:46:12;1999.90;;;999.90;;
66189;SDS011;52992;52.084;5.412;2023-06-05T08:48:43;1999.90;;;999.90;;
66189;SDS011;52992;52.084;5.412;2023-06-05T08:51:12;1999.90;;;999.90;;
66189;SDS011;52992;52.084;5.412;2023-06-05T08:53:42;1999.90;;;999.90;;
66189;SDS011;52992;52.084;5.412;2023-06-05T08:56:39;1999.90;;;999.90;;
66189;SDS011;52992;52.084;5.412;2023-06-05T08:59:07;1999.90;;;999.90;;
66189;SDS011;52992;52.084;5.412;2023-06-05T09:01:36;1999.90;;;999.90;;
66189;SDS011;52992;52.084;5.412;2023-06-05T09:04:04;1999.90;;;999.90;;
66189;SDS011;52992;52.084;5.412;2023-06-05T09:06:31;1999.90;;;999.90;;
66189;SDS011;52992;52.084;5.412;2023-06-05T09:09:02;1999.90;;;999.90;;
66189;SDS011;52992;52.084;5.412;2023-06-05T09:11:30;1999.90;;;999.90;;
66189;SDS011;52992;52.084;5.412;2023-06-05T09:13:58;1999.90;;;999.90;;
66189;SDS011;52992;52.084;5.412;2023-06-05T09:16:40;1999.90;;;999.90;;
66189;SDS011;52992;52.084;5.412;2023-06-05T09:19:09;1999.90;;;999.90;;
66189;SDS011;52992;52.084;5.412;2023-06-05T09:21:37;1999.90;;;999.90;;
66189;SDS011;52992;52.084;5.412;2023-06-05T09:24:18;1999.90;;;999.90;;
66189;SDS011;52992;52.084;5.412;2023-06-05T09:29:21;1999.90;;;999.90;;
66189;SDS011;52992;52.084;5.412;2023-06-05T09:31:53;1999.90;;;999.90;;
66189;SDS011;52992;52.084;5.412;2023-06-05T09:34:27;1999.90;;;999.90;;
66189;SDS011;52992;52.084;5.412;2023-06-05T09:36:56;1999.90;;;999.90;;
66189;SDS011;52992;52.084;5.412;2023-06-05T09:39:25;1999.90;;;999.90;;
66189;SDS011;52992;52.084;5.412;2023-06-05T09:41:56;1999.90;;;999.90;;
66189;SDS011;52992;52.084;5.412;2023-06-05T09:44:25;1999.90;;;999.90;;
66189;SDS011;52992;52.084;5.412;2023-06-05T09:46:54;1999.90;;;999.90;;
66189;SDS011;52992;52.084;5.412;2023-06-05T09:52:11;1999.90;;;999.90;;
66189;SDS011;52992;52.084;5.412;2023-06-05T09:54:39;1999.90;;;999.90;;
66189;SDS011;52992;52.084;5.412;2023-06-05T09:57:09;1999.90;;;999.90;;
66189;SDS011;52992;52.084;5.412;2023-06-05T09:59:50;1999.90;;;999.90;;
66189;SDS011;52992;52.084;5.412;2023-06-05T10:02:21;1999.90;;;999.90;;
66189;SDS011;52992;52.084;5.412;2023-06-05T10:04:59;1999.90;;;999.90;;
66189;SDS011;52992;52.084;5.412;2023-06-05T10:07:30;1999.90;;;999.90;;
66189;SDS011;52992;52.084;5.412;2023-06-05T10:10:08;1999.90;;;999.90;;
66189;SDS011;52992;52.084;5.412;2023-06-05T10:12:36;1999.90;;;999.90;;
66189;SDS011;52992;52.084;5.412;2023-06-05T10:15:04;1999.90;;;999.90;;
66189;SDS011;52992;52.084;5.412;2023-06-05T10:17:33;1999.90;;;999.90;;
66189;SDS011;52992;52.084;5.412;2023-06-05T10:20:03;1999.90;;;999.90;;
66189;SDS011;52992;52.084;5.412;2023-06-05T10:22:33;1999.90;;;999.90;;
66189;SDS011;52992;52.084;5.412;2023-06-05T10:25:03;1999.90;;;999.90;;
66189;SDS011;52992;52.084;5.412;2023-06-05T10:33:36;1999.90;;;999.90;;
66189;SDS011;52992;52.084;5.412;2023-06-05T10:36:20;1999.90;;;999.90;;
66189;SDS011;52992;52.084;5.412;2023-06-05T10:39:08;1999.90;;;999.90;;
66189;SDS011;52992;52.084;5.412;2023-06-05T10:41:36;1999.90;;;999.90;;
66189;SDS011;52992;52.084;5.412;2023-06-05T10:44:04;1999.90;;;999.90;;
66189;SDS011;52992;52.084;5.412;2023-06-05T10:46:32;1999.90;;;999.90;;
66189;SDS011;52992;52.084;5.412;2023-06-05T10:49:13;1999.90;;;999.90;;
66189;SDS011;52992;52.084;5.412;2023-06-05T10:51:44;1999.90;;;999.90;;
66189;SDS011;52992;52.084;5.412;2023-06-05T10:59:20;1999.90;;;999.90;;
66189;SDS011;52992;52.084;5.412;2023-06-05T11:07:21;1999.90;;;999.90;;
66189;SDS011;52992;52.084;5.412;2023-06-05T11:13:15;1999.90;;;999.90;;
66189;SDS011;52992;52.084;5.412;2023-06-05T11:17:55;1999.90;;;999.90;;
66189;SDS011;52992;52.084;5.412;2023-06-05T11:27:48;39.30;;;37.43;;
66189;SDS011;52992;52.084;5.412;2023-06-05T11:30:17;37.97;;;35.97;;
66189;SDS011;52992;52.084;5.412;2023-06-05T11:33:08;38.17;;;36.47;;
66189;SDS011;52992;52.084;5.412;2023-06-05T11:35:48;37.67;;;35.77;;
66189;SDS011;52992;52.084;5.412;2023-06-05T11:38:17;38.80;;;36.67;;
66189;SDS011;52992;52.084;5.412;2023-06-05T11:40:49;38.23;;;36.33;;
66189;SDS011;52992;52.084;5.412;2023-06-05T11:43:16;38.93;;;37.13;;
66189;SDS011;52992;52.084;5.412;2023-06-05T11:45:51;40.03;;;38.13;;
66189;SDS011;52992;52.084;5.412;2023-06-05T11:48:19;43.07;;;41.07;;
66189;SDS011;52992;52.084;5.412;2023-06-05T11:51:02;41.83;;;39.83;;
66189;SDS011;52992;52.084;5.412;2023-06-05T11:53:32;40.40;;;38.53;;
66189;SDS011;52992;52.084;5.412;2023-06-05T11:55:59;41.60;;;39.63;;
66189;SDS011;52992;52.084;5.412;2023-06-05T11:58:30;45.30;;;43.10;;
66189;SDS011;52992;52.084;5.412;2023-06-05T12:01:15;41.63;;;39.73;;
66189;SDS011;52992;52.084;5.412;2023-06-05T12:04:01;42.30;;;40.40;;
66189;SDS011;52992;52.084;5.412;2023-06-05T12:06:30;43.23;;;41.13;;
66189;SDS011;52992;52.084;5.412;2023-06-05T12:09:07;42.47;;;40.53;;
66189;SDS011;52992;52.084;5.412;2023-06-05T12:11:35;42.20;;;40.20;;
66189;SDS011;52992;52.084;5.412;2023-06-05T12:14:04;43.27;;;41.37;;
66189;SDS011;52992;52.084;5.412;2023-06-05T12:16:32;43.40;;;41.40;;
66189;SDS011;52992;52.084;5.412;2023-06-05T12:19:01;40.03;;;38.00;;
66189;SDS011;52992;52.084;5.412;2023-06-05T12:21:40;41.00;;;39.10;;
66189;SDS011;52992;52.084;5.412;2023-06-05T12:24:07;37.93;;;36.13;;
66189;SDS011;52992;52.084;5.412;2023-06-05T12:29:28;39.22;;;37.42;;
66189;SDS011;52992;52.084;5.412;2023-06-05T12:32:19;38.50;;;36.70;;
66189;SDS011;52992;52.084;5.412;2023-06-05T12:34:49;38.15;;;36.35;;
66189;SDS011;52992;52.084;5.412;2023-06-05T12:39:56;36.67;;;34.78;;
66189;SDS011;52992;52.084;5.412;2023-06-05T12:42:24;37.10;;;35.40;;
66189;SDS011;52992;52.084;5.412;2023-06-05T12:44:51;37.10;;;35.22;;
66189;SDS011;52992;52.084;5.412;2023-06-05T12:47:18;38.00;;;36.17;;
66189;SDS011;52992;52.084;5.412;2023-06-05T12:49:46;38.33;;;36.55;;
66189;SDS011;52992;52.084;5.412;2023-06-05T12:52:13;35.95;;;34.25;;
66189;SDS011;52992;52.084;5.412;2023-06-05T12:54:40;36.53;;;34.83;;
66189;SDS011;52992;52.084;5.412;2023-06-05T12:57:07;35.38;;;33.67;;
66189;SDS011;52992;52.084;5.412;2023-06-05T12:59:37;38.08;;;36.28;;
66189;SDS011;52992;52.084;5.412;2023-06-05T13:02:04;35.90;;;34.30;;
66189;SDS011;52992;52.084;5.412;2023-06-05T13:04:32;36.63;;;34.83;;
66189;SDS011;52992;52.084;5.412;2023-06-05T13:07:02;36.50;;;34.55;;
66189;SDS011;52992;52.084;5.412;2023-06-05T13:09:30;35.90;;;34.20;;
66189;SDS011;52992;52.084;5.412;2023-06-05T13:11:57;38.93;;;36.73;;
66189;SDS011;52992;52.084;5.412;2023-06-05T13:14:26;38.90;;;36.90;;
66189;SDS011;52992;52.084;5.412;2023-06-05T13:16:53;39.30;;;37.43;;
66189;SDS011;52992;52.084;5.412;2023-06-05T13:19:20;37.67;;;35.97;;
66189;SDS011;52992;52.084;5.412;2023-06-05T13:21:47;40.57;;;38.57;;
66189;SDS011;52992;52.084;5.412;2023-06-05T13:24:15;42.03;;;39.90;;
66189;SDS011;52992;52.084;5.412;2023-06-05T13:26:42;43.77;;;41.77;;
66189;SDS011;52992;52.084;5.412;2023-06-05T13:29:09;44.47;;;42.40;;
66189;SDS011;52992;52.084;5.412;2023-06-05T13:31:37;46.73;;;44.63;;
66189;SDS011;52992;52.084;5.412;2023-06-05T13:34:04;51.60;;;49.17;;
66189;SDS011;52992;52.084;5.412;2023-06-05T13:36:32;55.77;;;53.27;;
66189;SDS011;52992;52.084;5.412;2023-06-05T13:39:00;55.23;;;52.60;;
66189;SDS011;52992;52.084;5.412;2023-06-05T13:41:27;56.07;;;53.40;;
66189;SDS011;52992;52.084;5.412;2023-06-05T13:43:54;57.23;;;54.63;;
66189;SDS011;52992;52.084;5.412;2023-06-05T13:46:24;1999.90;;;999.90;;
66189;SDS011;52992;52.084;5.412;2023-06-05T13:48:52;1353.20;;;685.60;;
66189;SDS011;52992;52.084;5.412;2023-06-05T13:51:20;1999.90;;;999.90;;
66189;SDS011;52992;52.084;5.412;2023-06-05T13:53:48;1999.90;;;999.90;;
66189;SDS011;52992;52.084;5.412;2023-06-05T13:56:15;1999.90;;;999.90;;
66189;SDS011;52992;52.084;5.412;2023-06-05T13:58:42;1999.90;;;999.90;;
66189;SDS011;52992;52.084;5.412;2023-06-05T14:01:08;1999.90;;;999.90;;
66189;SDS011;52992;52.084;5.412;2023-06-05T14:03:36;1999.90;;;999.90;;
66189;SDS011;52992;52.084;5.412;2023-06-05T14:06:03;1999.90;;;999.90;;
66189;SDS011;52992;52.084;5.412;2023-06-05T14:08:30;1999.90;;;999.90;;
66189;SDS011;52992;52.084;5.412;2023-06-05T14:10:59;1999.90;;;999.90;;
66189;SDS011;52992;52.084;5.412;2023-06-05T14:13:26;1999.90;;;999.90;;
66189;SDS011;52992;52.084;5.412;2023-06-05T14:15:53;1999.90;;;999.90;;
66189;SDS011;52992;52.084;5.412;2023-06-05T14:18:20;1999.90;;;999.90;;
66189;SDS011;52992;52.084;5.412;2023-06-05T14:20:47;1999.90;;;999.90;;
66189;SDS011;52992;52.084;5.412;2023-06-05T14:23:14;1999.90;;;999.90;;
66189;SDS011;52992;52.084;5.412;2023-06-05T14:25:41;1999.90;;;999.90;;
66189;SDS011;52992;52.084;5.412;2023-06-05T14:28:08;1999.90;;;999.90;;
66189;SDS011;52992;52.084;5.412;2023-06-05T14:30:36;1999.90;;;999.90;;
66189;SDS011;52992;52.084;5.412;2023-06-05T14:33:03;1999.90;;;999.90;;
66189;SDS011;52992;52.084;5.412;2023-06-05T14:35:30;1999.90;;;999.90;;
66189;SDS011;52992;52.084;5.412;2023-06-05T14:37:57;1999.90;;;999.90;;
66189;SDS011;52992;52.084;5.412;2023-06-05T14:40:25;1999.90;;;999.90;;
66189;SDS011;52992;52.084;5.412;2023-06-05T14:42:52;1999.90;;;999.90;;